Kabalega Falls Airport


Codes: HUKF/KBG
Name: Kabalega Falls Airport
City: Kabalega Falls
Country: Uganda
Elevation: 2365 ft.

Photos at Kabalega Falls Airport


   Photos courtesy of SpottingLog. You can add your own sightings and photos by signing up for a free trial today.



No photos found.

Weather at Kabalega Falls Airport


Time (UTC)DescriptionTempratureWindCloud coverageVisibilityPressureHumidity
25-Jun-2024 15:00Scattered Clouds32°C4 mph, S28%10000m1009hPa35%
25-Jun-2024 18:00Scattered Clouds26°C4 mph, SE25%10000m1010hPa49%
25-Jun-2024 21:00Few Clouds22°C4 mph, S17%10000m1011hPa59%
26-Jun-2024 00:00Scattered Clouds21°C4 mph, SE37%10000m1010hPa63%
26-Jun-2024 03:00Overcast Clouds19°C7 mph, SE88%10000m1012hPa67%
26-Jun-2024 06:00Broken Clouds24°C7 mph, SE75%10000m1014hPa48%
26-Jun-2024 09:00Few Clouds30°C9 mph, SW13%10000m1012hPa33%
26-Jun-2024 12:00Clear Sky33°C9 mph, SW8%10000m1008hPa27%
26-Jun-2024 15:00Clear Sky31°C7 mph, SW1%10000m1006hPa31%
26-Jun-2024 18:00Few Clouds24°C7 mph, SE12%10000m1010hPa41%
26-Jun-2024 21:00Overcast Clouds25°C7 mph, SW90%10000m1011hPa48%
27-Jun-2024 00:00Overcast Clouds24°C4 mph, S95%10000m1010hPa53%
27-Jun-2024 03:00Overcast Clouds23°C7 mph, SE100%10000m1011hPa53%
27-Jun-2024 06:00Overcast Clouds25°C4 mph, SE100%10000m1013hPa47%
27-Jun-2024 09:00Overcast Clouds30°C9 mph, SW100%10000m1012hPa34%
27-Jun-2024 12:00Overcast Clouds32°C9 mph, SW100%10000m1008hPa29%
27-Jun-2024 15:00Overcast Clouds30°C4 mph, SW100%10000m1008hPa36%
27-Jun-2024 18:00Overcast Clouds27°C4 mph, SE100%10000m1011hPa43%
27-Jun-2024 21:00Overcast Clouds24°C4 mph, E100%10000m1012hPa54%
28-Jun-2024 00:00Overcast Clouds23°C4 mph, E100%10000m1011hPa57%
28-Jun-2024 03:00Overcast Clouds23°C4 mph, E100%10000m1012hPa60%
28-Jun-2024 06:00Overcast Clouds24°C2 mph, SE100%10000m1014hPa54%
28-Jun-2024 09:00Overcast Clouds31°C9 mph, S100%10000m1012hPa38%
28-Jun-2024 12:00Overcast Clouds33°C7 mph, SW100%10000m1009hPa32%
28-Jun-2024 15:00Overcast Clouds28°C9 mph, S100%10000m1009hPa48%
28-Jun-2024 18:00Overcast Clouds25°C7 mph, SW100%10000m1012hPa59%
28-Jun-2024 21:00Overcast Clouds23°C4 mph, SE100%10000m1012hPa65%
29-Jun-2024 00:00Overcast Clouds21°C4 mph, SE99%10000m1012hPa69%
29-Jun-2024 03:00Overcast Clouds20°C4 mph, E98%10000m1013hPa73%
29-Jun-2024 06:00Overcast Clouds25°C2 mph, SE97%10000m1014hPa53%
29-Jun-2024 09:00Broken Clouds32°C4 mph, SW82%10000m1012hPa33%
29-Jun-2024 12:00Broken Clouds34°C7 mph, SW72%10000m1009hPa28%
29-Jun-2024 15:00Broken Clouds32°C0 mph, NW73%10000m1008hPa33%
29-Jun-2024 18:00Light Rain24°C2 mph, SE76%10000m1011hPa61%
29-Jun-2024 21:00Light Rain20°C4 mph, NE89%10000m1013hPa82%
30-Jun-2024 00:00Broken Clouds20°C2 mph, NE78%10000m1013hPa85%
30-Jun-2024 03:00Overcast Clouds20°C4 mph, E100%10000m1013hPa83%
30-Jun-2024 06:00Overcast Clouds23°C2 mph, E100%10000m1014hPa71%
30-Jun-2024 09:00Overcast Clouds27°C2 mph, NE100%10000m1013hPa55%
30-Jun-2024 12:00Overcast Clouds33°C4 mph, SW100%10000m1009hPa33%